Time;durP1;ratioP1;P1;durP2;ratioP2;P2;SDS_P1;SDS_P2;PMS_P1;PMS_P2;Temp;Humidity;BMP_temperature;BMP_pressure;BME280_temperature;BME280_humidity;BME280_pressure;Samples;Min_cycle;Max_cycle;Signal;HPM_P1;HPM_P2
2022/02/16 00:01:32;;;;;;;;;24.25;21.25;;;;;8.30;72.01;101694.34;146613;608;46012;-71
2022/02/16 00:04:24;;;;;;;;;29.25;29.00;;;;;8.27;71.24;101684.66;146613;619;46010;-70
2022/02/16 00:07:16;;;;;;;;;27.00;22.75;;;;;8.24;70.76;101683.53;146609;580;47012;-71
2022/02/16 00:10:09;;;;;;;;;22.25;20.50;;;;;8.21;71.25;101684.19;146604;670;46021;-70
2022/02/16 00:13:01;;;;;;;;;23.00;19.75;;;;;8.15;71.97;101672.50;146611;686;47012;-71
2022/02/16 00:15:53;;;;;;;;;24.25;21.50;;;;;8.15;71.59;101675.97;146614;585;46010;-71
2022/02/16 00:18:45;;;;;;;;;23.25;20.50;;;;;8.15;73.32;101677.66;146612;681;46013;-71
2022/02/16 00:21:37;;;;;;;;;24.50;21.00;;;;;8.12;73.24;101680.00;146613;569;46010;-75
2022/02/16 00:24:29;;;;;;;;;22.75;19.25;;;;;8.10;71.75;101667.00;146612;598;46016;-76
2022/02/16 00:27:21;;;;;;;;;23.50;19.50;;;;;8.12;72.54;101661.94;146613;566;46010;-77
2022/02/16 00:30:13;;;;;;;;;18.75;17.75;;;;;8.09;73.05;101650.56;146611;584;46012;-68
2022/02/16 00:33:05;;;;;;;;;24.50;21.00;;;;;8.10;73.37;101638.59;146614;600;46010;-68
2022/02/16 00:35:57;;;;;;;;;23.75;20.00;;;;;8.10;72.33;101644.66;146604;570;47867;-68
2022/02/16 00:38:49;;;;;;;;;26.00;22.50;;;;;8.14;72.04;101642.28;146607;640;46010;-68
2022/02/16 00:41:42;;;;;;;;;23.50;19.50;;;;;8.19;71.71;101640.94;146610;578;46017;-71
2022/02/16 00:44:34;;;;;;;;;23.00;21.75;;;;;8.24;71.93;101637.03;146612;616;46020;-70
2022/02/16 00:47:26;;;;;;;;;21.00;20.00;;;;;8.27;71.99;101637.25;146611;633;46016;-70
2022/02/16 00:50:18;;;;;;;;;20.00;20.00;;;;;8.26;72.11;101638.94;146613;573;46029;-71
2022/02/16 00:53:10;;;;;;;;;25.00;23.25;;;;;8.25;71.36;101642.28;146606;579;48916;-71
2022/02/16 00:56:03;;;;;;;;;18.75;18.75;;;;;8.24;71.82;101635.34;146611;575;47010;-71
2022/02/16 00:58:54;;;;;;;;;26.75;24.00;;;;;8.24;71.44;101639.59;146611;609;46016;-71
2022/02/16 01:01:47;;;;;;;;;27.00;24.00;;;;;8.24;71.95;101637.03;146614;572;46010;-71
2022/02/16 01:04:38;;;;;;;;;24.00;22.50;;;;;8.20;71.41;101628.16;146612;572;46017;-69
2022/02/16 01:07:31;;;;;;;;;28.25;23.75;;;;;8.21;71.10;101624.78;146608;602;46010;-68
2022/02/16 01:10:23;;;;;;;;;27.50;25.50;;;;;8.23;70.73;101628.38;146610;586;46013;-68
2022/02/16 01:13:15;;;;;;;;;27.00;25.75;;;;;7.04;70.46;101405.09;146614;616;46020;-69
2022/02/16 01:16:07;;;;;;;;;52.25;42.25;;;;;8.18;74.01;101629.72;146612;594;46012;-68
2022/02/16 01:18:59;;;;;;;;;51.25;39.25;;;;;8.12;71.92;101624.06;146613;569;46021;-68
2022/02/16 01:21:54;;;;;;;;;44.00;37.25;;;;;8.09;72.43;101624.75;146613;752;46014;-68
2022/02/16 01:24:46;;;;;;;;;53.75;38.50;;;;;8.04;71.82;101625.22;146614;599;46010;-72
2022/02/16 01:27:38;;;;;;;;;38.75;32.25;;;;;8.01;72.72;101620.69;146608;613;46016;-68
2022/02/16 01:30:31;;;;;;;;;53.50;42.50;;;;;7.96;71.71;101622.03;146613;573;47010;-67
2022/02/16 01:33:23;;;;;;;;;79.00;67.33;;;;;7.91;72.49;101613.00;146612;586;46017;-69
2022/02/16 01:36:15;;;;;;;;;31.50;28.50;;;;;7.87;73.72;101611.00;146612;620;47012;-68
2022/02/16 01:39:08;;;;;;;;;30.50;28.75;;;;;7.78;73.52;101598.28;146610;601;46016;-70
2022/02/16 01:42:00;;;;;;;;;31.25;27.25;;;;;7.74;72.73;101591.09;146614;574;46010;-68
2022/02/16 01:44:52;;;;;;;;;38.00;33.75;;;;;7.73;72.67;101586.72;146609;602;46916;-69
2022/02/16 01:47:45;;;;;;;;;27.75;26.25;;;;;7.78;72.72;101593.13;146613;596;46011;-69
2022/02/16 01:50:37;;;;;;;;;79.67;70.67;;;;;6.69;72.73;101382.69;146615;577;46012;-70
2022/02/16 01:53:29;;;;;;;;;47.50;38.50;;;;;7.97;72.51;101581.59;146619;678;46010;-65
2022/02/16 01:56:24;;;;;;;;;43.00;35.25;;;;;8.06;72.44;101572.84;146609;598;46014;-68
2022/02/16 01:59:20;;;;;;;;;36.25;30.75;;;;;8.16;72.51;101578.72;146611;584;47010;-69
2022/02/16 02:02:12;;;;;;;;;45.25;37.00;;;;;8.21;72.43;101583.44;146610;772;47014;-69
2022/02/16 02:05:04;;;;;;;;;50.75;39.25;;;;;8.30;72.40;101598.72;146608;676;46010;-67
2022/02/16 02:07:56;;;;;;;;;67.50;52.75;;;;;8.39;72.21;101589.09;146610;570;46017;-68
2022/02/16 02:10:48;;;;;;;;;60.75;48.00;;;;;8.43;72.23;101588.53;146613;599;46021;-69
2022/02/16 02:13:41;;;;;;;;;60.25;48.50;;;;;8.47;72.04;101588.00;146611;578;46014;-68
2022/02/16 02:16:33;;;;;;;;;49.50;40.00;;;;;8.46;71.86;101590.44;146613;611;46011;-68
2022/02/16 02:19:25;;;;;;;;;47.25;37.75;;;;;8.45;71.56;101592.13;146608;677;46016;-67
2022/02/16 02:22:18;;;;;;;;;53.50;44.00;;;;;8.45;71.52;101594.72;146613;580;46020;-67
2022/02/16 02:25:09;;;;;;;;;47.75;38.00;;;;;8.46;72.47;101599.09;146613;582;46017;-68
2022/02/16 02:28:03;;;;;;;;;50.00;40.75;;;;;8.39;73.87;101591.69;146612;569;46010;-68
2022/02/16 02:30:55;;;;;;;;;50.00;39.50;;;;;8.24;75.31;101573.31;146610;689;46015;-68
2022/02/16 02:33:47;;;;;;;;;48.50;41.75;;;;;8.12;76.13;101567.25;146608;596;46010;-69
2022/02/16 02:36:39;;;;;;;;;55.75;40.00;;;;;8.04;76.38;101561.53;146608;575;46012;-69
2022/02/16 02:39:31;;;;;;;;;43.50;37.50;;;;;8.00;75.97;101561.16;146613;611;46010;-67
2022/02/16 02:42:23;;;;;;;;;47.25;38.50;;;;;7.98;75.07;101547.25;146613;709;46012;-68
2022/02/16 02:45:16;;;;;;;;;50.75;39.75;;;;;8.01;74.43;101552.66;146612;706;46011;-70
2022/02/16 02:48:08;;;;;;;;;52.75;42.25;;;;;8.07;73.93;101554.00;146611;595;46016;-69
2022/02/16 02:51:00;;;;;;;;;53.00;44.00;;;;;8.18;73.94;101561.66;146613;590;46010;-66
2022/02/16 02:53:52;;;;;;;;;52.25;40.75;;;;;8.22;73.18;101563.66;146611;641;46013;-68
2022/02/16 02:56:44;;;;;;;;;75.67;64.67;;;;;8.25;73.15;101563.88;146613;599;46010;-69
2022/02/16 02:59:36;;;;;;;;;51.50;41.25;;;;;8.22;72.78;101567.12;146614;585;47012;-69
2022/02/16 03:02:28;;;;;;;;;72.50;55.75;;;;;8.20;72.72;101578.16;146607;596;45021;-69
2022/02/16 03:05:20;;;;;;;;;47.50;38.00;;;;;8.12;72.92;101571.53;146610;611;46016;-68
2022/02/16 03:08:12;;;;;;;;;76.33;66.00;;;;;8.06;72.87;101575.44;146614;642;46011;-72
2022/02/16 03:11:05;;;;;;;;;66.50;53.25;;;;;8.04;73.39;101569.28;146610;662;46014;-68
2022/02/16 03:13:57;;;;;;;;;50.50;42.00;;;;;7.99;74.09;101578.34;146613;676;46010;-75
2022/02/16 03:16:49;;;;;;;;;41.25;35.00;;;;;7.95;74.48;101567.69;146609;564;46016;-78
2022/02/16 03:19:41;;;;;;;;;39.00;33.25;;;;;7.88;74.18;101566.31;146613;571;46010;-83
2022/02/16 03:22:33;;;;;;;;;43.75;36.00;;;;;7.86;75.35;101552.41;146611;580;46017;-83
2022/02/16 03:25:25;;;;;;;;;42.75;33.75;;;;;7.85;74.77;101542.88;146613;650;46028;-75
2022/02/16 03:28:17;;;;;;;;;35.25;31.00;;;;;7.85;73.98;101537.69;146611;663;46016;-75
2022/02/16 03:31:10;;;;;;;;;36.75;31.50;;;;;7.85;73.36;101542.88;146607;596;46011;-75
2022/02/16 03:34:02;;;;;;;;;41.00;35.50;;;;;7.89;73.42;101533.66;146608;597;47016;-76
2022/02/16 03:36:55;;;;;;;;;45.00;35.00;;;;;7.93;73.23;101534.00;146614;627;46010;-73
2022/02/16 03:39:47;;;;;;;;;37.75;32.25;;;;;7.98;73.22;101524.91;146609;575;47014;-74
2022/02/16 03:42:40;;;;;;;;;46.50;37.75;;;;;8.02;73.19;101526.03;146614;603;46020;-74
2022/02/16 03:45:32;;;;;;;;;55.00;41.75;;;;;8.01;72.29;101530.31;146611;570;46017;-76
2022/02/16 03:48:24;;;;;;;;;63.50;50.25;;;;;8.00;72.24;101537.91;146614;612;46010;-70
2022/02/16 03:51:17;;;;;;;;;75.33;61.00;;;;;8.02;72.55;101544.12;146610;643;46016;-69
2022/02/16 03:54:09;;;;;;;;;52.75;42.50;;;;;8.01;72.56;101542.31;146617;597;46011;-69
2022/02/16 03:57:01;;;;;;;;;51.50;41.50;;;;;7.98;73.07;101547.25;146610;615;46016;-69
2022/02/16 03:59:53;;;;;;;;;52.75;43.50;;;;;7.96;73.31;101548.81;146607;648;46013;-69
2022/02/16 04:02:45;;;;;;;;;47.50;38.25;;;;;7.94;73.83;101559.03;146612;582;46016;-68
2022/02/16 04:05:40;;;;;;;;;45.50;38.25;;;;;7.93;73.88;101564.09;146613;662;46010;-68
2022/02/16 04:08:32;;;;;;;;;49.75;41.00;;;;;7.93;73.76;101569.25;146609;651;46016;-68
2022/02/16 04:11:26;;;;;;;;;41.00;34.25;;;;;7.95;73.44;101565.09;146611;595;46010;-67
2022/02/16 04:14:18;;;;;;;;;53.75;42.75;;;;;7.94;73.40;101559.03;146610;645;46916;-67
2022/02/16 04:17:10;;;;;;;;;52.50;40.75;;;;;7.92;73.19;101570.03;146613;584;46010;-67
2022/02/16 04:20:02;;;;;;;;;46.50;38.00;;;;;7.89;73.37;101564.66;146611;570;46016;-68
2022/02/16 04:22:54;;;;;;;;;32.50;28.50;;;;;7.85;73.66;101568.69;146613;587;46020;-69
2022/02/16 04:25:46;;;;;;;;;39.50;34.75;;;;;7.81;73.43;101570.09;146611;640;46016;-69
2022/02/16 04:28:38;;;;;;;;;39.50;33.75;;;;;7.79;73.83;101571.69;146606;745;47010;-69
2022/02/16 04:31:30;;;;;;;;;30.50;29.00;;;;;7.73;75.19;101565.19;146611;622;46016;-69
2022/02/16 04:34:23;;;;;;;;;33.75;29.50;;;;;7.62;75.34;101556.59;146612;602;46010;-69
2022/02/16 04:37:14;;;;;;;;;30.00;25.50;;;;;7.54;74.94;101553.44;146611;571;46013;-69
2022/02/16 04:40:11;;;;;;;;;27.50;24.25;;;;;7.47;74.93;101545.09;146613;565;46010;-70
2022/02/16 04:43:05;;;;;;;;;25.25;23.00;;;;;7.45;75.65;101533.78;146612;569;46016;-69
2022/02/16 04:45:57;;;;;;;;;22.25;21.00;;;;;6.22;75.03;101310.34;146613;581;46011;-69
2022/02/16 04:48:49;;;;;;;;;23.75;21.50;;;;;7.48;74.46;101529.75;146611;593;46016;-69
2022/02/16 04:51:41;;;;;;;;;29.25;25.75;;;;;7.54;74.53;101521.56;146613;614;46011;-69
2022/02/16 04:54:33;;;;;;;;;25.00;23.75;;;;;7.58;74.16;101516.75;146611;570;45917;-72
2022/02/16 04:57:25;;;;;;;;;23.00;21.25;;;;;7.59;74.49;101508.22;146608;592;46010;-71
2022/02/16 05:00:19;;;;;;;;;22.50;20.25;;;;;7.56;74.24;101514.84;146611;607;46017;-73
2022/02/16 05:03:11;;;;;;;;;27.00;21.00;;;;;7.56;74.13;101517.41;146612;578;46020;-75
2022/02/16 05:06:03;;;;;;;;;21.25;17.75;;;;;7.58;74.02;101524.50;146610;594;46016;-76
2022/02/16 05:08:55;;;;;;;;;24.50;22.25;;;;;7.59;73.59;101527.97;146613;565;46010;-76
2022/02/16 05:11:47;;;;;;;;;19.75;18.50;;;;;7.59;73.09;101525.41;146609;565;47012;-76
2022/02/16 05:14:40;;;;;;;;;23.25;18.50;;;;;7.62;73.62;101536.84;146614;583;46011;-71
2022/02/16 05:17:32;;;;;;;;;17.75;16.75;;;;;7.57;74.72;101534.69;146609;635;46016;-71
2022/02/16 05:20:25;;;;;;;;;22.50;18.00;;;;;7.51;74.33;101536.84;146613;585;46020;-71
2022/02/16 05:23:17;;;;;;;;;45.75;33.75;;;;;7.43;76.42;101530.19;146610;660;46017;-74
2022/02/16 05:26:09;;;;;;;;;58.25;43.75;;;;;7.38;77.57;101524.66;146606;579;46020;-74
2022/02/16 05:29:02;;;;;;;;;26.50;26.00;;;;;7.34;78.00;101527.78;146611;663;46016;-75
2022/02/16 05:31:54;;;;;;;;;29.25;27.00;;;;;7.32;78.19;101519.94;146612;589;46010;-76
2022/02/16 05:34:46;;;;;;;;;31.50;28.00;;;;;7.31;78.12;101518.13;146610;565;46012;-74
2022/02/16 05:37:38;;;;;;;;;32.00;28.75;;;;;7.32;77.64;101519.94;146612;582;46021;-75
2022/02/16 05:40:30;;;;;;;;;27.50;22.75;;;;;7.39;77.50;101535.09;146613;584;46014;-70
2022/02/16 05:43:22;;;;;;;;;29.75;24.50;;;;;7.45;76.89;101532.09;146614;636;46020;-75
2022/02/16 05:46:15;;;;;;;;;21.25;20.25;;;;;6.22;76.92;101300.94;146611;604;46016;-75
2022/02/16 05:49:08;;;;;;;;;29.00;25.75;;;;;7.56;77.60;101528.63;146613;575;46010;-74
2022/02/16 05:52:00;;;;;;;;;28.00;25.25;;;;;7.59;78.70;101526.28;146613;609;45017;-74
2022/02/16 05:54:52;;;;;;;;;28.50;25.00;;;;;7.63;76.54;101533.50;146607;619;46012;-74
2022/02/16 05:57:44;;;;;;;;;24.75;22.75;;;;;7.75;76.08;101533.50;146609;709;46014;-77
2022/02/16 06:00:37;;;;;;;;;32.00;26.75;;;;;7.89;75.48;101528.50;146614;617;46011;-71
2022/02/16 06:03:29;;;;;;;;;26.75;25.00;;;;;8.03;74.92;101526.13;146610;578;46012;-68
2022/02/16 06:06:21;;;;;;;;;23.75;23.75;;;;;8.18;74.64;101531.53;146614;594;46010;-70
2022/02/16 06:09:13;;;;;;;;;27.50;24.25;;;;;8.30;73.86;101536.72;146611;660;46014;-69
2022/02/16 06:12:06;;;;;;;;;34.75;30.25;;;;;8.55;73.96;101544.59;146613;600;46020;-69
2022/02/16 06:14:58;;;;;;;;;42.00;34.00;;;;;8.67;73.96;101540.31;146610;599;46016;-69
2022/02/16 06:17:50;;;;;;;;;52.75;40.75;;;;;8.72;72.99;101540.62;146613;595;46012;-68
2022/02/16 06:20:42;;;;;;;;;96.00;85.00;;;;;8.85;73.34;101545.91;146613;742;46016;-68
2022/02/16 06:23:34;;;;;;;;;62.50;48.75;;;;;9.02;73.24;101549.69;146613;576;47012;-68
2022/02/16 06:26:26;;;;;;;;;80.00;65.75;;;;;9.24;73.10;101544.31;146605;653;46014;-66
2022/02/16 06:29:18;;;;;;;;;229.00;200.75;;;;;9.51;72.13;101552.19;146619;575;46020;-66
2022/02/16 06:32:10;;;;;;;;;85.00;73.33;;;;;9.65;71.39;101548.84;146616;599;46014;-66
2022/02/16 06:35:02;;;;;;;;;77.33;65.33;;;;;9.78;71.50;101551.50;146618;569;46010;-66
2022/02/16 06:37:54;;;;;;;;;78.25;63.50;;;;;9.91;71.17;101545.44;146612;604;46025;-67
2022/02/16 06:40:48;;;;;;;;;82.00;69.33;;;;;10.04;71.02;101542.88;146613;620;46010;-68
2022/02/16 06:43:40;;;;;;;;;83.33;74.00;;;;;10.18;70.75;101542.06;146611;651;46016;-68
2022/02/16 06:46:32;;;;;;;;;78.67;64.67;;;;;10.34;71.08;101537.91;146639;577;45030;-68
2022/02/16 06:49:24;;;;;;;;;65.50;52.00;;;;;10.59;70.53;101548.16;146632;594;46012;-67
2022/02/16 06:52:16;;;;;;;;;76.33;63.67;;;;;10.85;70.07;101542.06;146630;614;45010;-68
2022/02/16 06:55:09;;;;;;;;;77.00;67.00;;;;;11.13;69.26;101547.28;146635;594;45016;-71
2022/02/16 06:58:02;;;;;;;;;64.00;52.50;;;;;11.32;68.54;101547.59;146634;566;45010;-74
2022/02/16 07:00:53;;;;;;;;;65.50;51.25;;;;;11.47;67.99;101554.56;146633;639;46012;-73
2022/02/16 07:03:46;;;;;;;;;68.25;53.25;;;;;11.60;67.74;101561.38;146634;621;46010;-72
2022/02/16 07:06:37;;;;;;;;;67.00;51.75;;;;;11.69;67.29;101538.56;146633;569;45013;-73
2022/02/16 07:09:30;;;;;;;;;66.75;52.25;;;;;11.73;67.13;101549.19;146634;566;45020;-73
2022/02/16 07:12:21;;;;;;;;;69.75;55.00;;;;;11.71;67.04;101543.03;146635;570;45012;-73
2022/02/16 07:15:14;;;;;;;;;87.00;75.67;;;;;11.66;67.09;101538.37;146638;585;45010;-75
2022/02/16 07:18:06;;;;;;;;;148.75;124.75;;;;;11.70;67.27;101540.34;146640;715;46916;-74
2022/02/16 07:20:58;;;;;;;;;129.00;107.00;;;;;11.79;67.58;101530.50;146637;564;45021;-75
2022/02/16 07:23:50;;;;;;;;;80.67;71.00;;;;;11.94;67.76;101533.12;146631;634;46917;-76
2022/02/16 07:26:42;;;;;;;;;57.25;45.75;;;;;12.18;67.10;101531.97;146638;708;46010;-81
2022/02/16 07:29:34;;;;;;;;;46.75;35.50;;;;;12.36;66.50;101539.00;146631;635;45917;-75
2022/02/16 07:32:26;;;;;;;;;40.25;34.75;;;;;12.51;66.07;101537.28;146634;580;45010;-71
2022/02/16 07:35:18;;;;;;;;;49.75;42.00;;;;;12.60;65.69;101524.78;146633;564;45016;-71
2022/02/16 07:38:11;;;;;;;;;51.50;42.00;;;;;12.70;65.37;101534.87;146636;596;45010;-76
2022/02/16 07:41:03;;;;;;;;;55.25;45.25;;;;;12.84;65.70;101519.16;146632;683;45917;-81
2022/02/16 07:43:55;;;;;;;;;56.50;44.00;;;;;13.06;65.14;101511.69;146633;609;45021;-79
2022/02/16 07:46:48;;;;;;;;;56.75;44.00;;;;;13.29;64.58;101514.66;146613;583;45916;-80
2022/02/16 07:49:40;;;;;;;;;53.75;42.75;;;;;13.43;64.42;101515.34;146606;572;46020;-79
2022/02/16 07:52:33;;;;;;;;;66.75;52.25;;;;;13.53;64.57;101522.84;146612;595;46012;-80
2022/02/16 07:55:26;;;;;;;;;70.25;54.50;;;;;13.63;64.24;101522.50;146611;565;47010;-79
2022/02/16 07:58:18;;;;;;;;;60.75;47.75;;;;;13.70;64.75;101521.09;146612;586;45017;-79
2022/02/16 08:01:10;;;;;;;;;58.75;47.75;;;;;13.72;64.95;101514.28;146614;584;46010;-78
2022/02/16 08:04:17;;;;;;;;;61.75;49.00;;;;;13.67;64.38;101508.81;146610;576;46916;-78
2022/02/16 08:07:09;;;;;;;;;61.00;48.00;;;;;13.60;64.72;101515.41;146611;604;46020;-75
2022/02/16 08:10:01;;;;;;;;;70.25;56.75;;;;;13.53;64.57;101526.34;146609;605;46016;-75
2022/02/16 08:12:56;;;;;;;;;67.00;51.75;;;;;13.46;65.30;101521.66;146612;608;46021;-74
2022/02/16 08:15:48;;;;;;;;;66.25;51.75;;;;;13.47;64.81;101522.53;146609;595;46012;-72
2022/02/16 08:18:40;;;;;;;;;65.75;51.00;;;;;13.46;64.86;101518.13;146609;593;46010;-72
2022/02/16 08:21:32;;;;;;;;;64.00;49.25;;;;;13.50;65.14;101509.69;146611;596;46014;-72
2022/02/16 08:24:25;;;;;;;;;64.75;49.50;;;;;13.57;64.47;101502.22;146612;563;46028;-72
2022/02/16 08:27:17;;;;;;;;;63.50;51.75;;;;;13.63;64.54;101492.13;146611;584;46012;-72
2022/02/16 08:30:10;;;;;;;;;67.00;51.75;;;;;13.70;64.16;101493.34;146616;615;46010;-72
2022/02/16 08:33:02;;;;;;;;;66.50;52.00;;;;;13.82;64.26;101493.94;146614;625;46014;-72
2022/02/16 08:35:54;;;;;;;;;65.75;50.50;;;;;13.92;63.87;101483.97;146613;590;46021;-72
2022/02/16 08:38:47;;;;;;;;;60.75;48.00;;;;;14.03;64.26;101477.59;146610;570;46016;-72
2022/02/16 08:41:39;;;;;;;;;61.00;48.25;;;;;14.17;63.78;101476.53;146613;579;46012;-72
2022/02/16 08:44:31;;;;;;;;;63.25;49.75;;;;;14.29;63.43;101484.06;146609;618;46014;-72
2022/02/16 08:47:23;;;;;;;;;61.00;49.25;;;;;14.31;62.78;101475.50;146607;610;46010;-71
2022/02/16 08:50:16;;;;;;;;;61.75;49.50;;;;;14.36;62.98;101475.75;146609;612;46017;-71
2022/02/16 08:53:08;;;;;;;;;61.75;49.50;;;;;14.40;62.81;101484.59;146612;569;47010;-71
2022/02/16 08:56:01;;;;;;;;;57.50;45.00;;;;;14.39;63.16;101482.78;146610;624;46035;-72
2022/02/16 08:58:54;;;;;;;;;54.50;42.75;;;;;14.36;62.81;101482.66;146611;575;47010;-72
2022/02/16 09:01:46;;;;;;;;;51.25;41.75;;;;;14.22;63.32;101484.59;146607;571;47012;-72
2022/02/16 09:04:38;;;;;;;;;49.00;39.00;;;;;14.05;63.36;101496.84;146615;633;46020;-72
2022/02/16 09:07:30;;;;;;;;;52.50;42.00;;;;;13.89;64.14;101495.16;146614;668;46012;-73
2022/02/16 09:10:22;;;;;;;;;48.75;41.00;;;;;13.76;64.65;101487.53;146612;612;46020;-73
2022/02/16 09:13:14;;;;;;;;;52.75;43.25;;;;;13.71;65.31;101489.94;146611;579;46017;-73
2022/02/16 09:16:07;;;;;;;;;56.75;45.25;;;;;13.74;65.38;101487.47;146606;569;47010;-78
2022/02/16 09:18:58;;;;;;;;;56.50;45.00;;;;;13.80;65.43;101474.75;146611;603;46012;-74
2022/02/16 09:21:52;;;;;;;;;51.00;41.75;;;;;13.83;65.10;101467.09;146617;603;46012;-77
2022/02/16 09:24:44;;;;;;;;;59.00;44.75;;;;;13.80;65.83;101472.16;146612;671;46016;-73
2022/02/16 09:27:36;;;;;;;;;45.50;37.75;;;;;13.85;64.78;101467.16;146615;572;46010;-72
2022/02/16 09:30:28;;;;;;;;;41.25;34.50;;;;;13.77;64.70;101458.97;146612;628;46016;-73
2022/02/16 09:33:20;;;;;;;;;45.75;37.25;;;;;13.78;64.83;101436.38;146609;574;47020;-72
2022/02/16 09:36:13;;;;;;;;;46.25;34.75;;;;;13.76;64.76;101433.69;146611;645;45916;-72
2022/02/16 09:39:06;;;;;;;;;47.00;38.00;;;;;13.80;64.92;101430.44;146613;580;46010;-73
2022/02/16 09:41:58;;;;;;;;;46.00;37.25;;;;;13.80;65.11;101421.69;146609;601;46012;-73
2022/02/16 09:45:02;;;;;;;;;44.50;34.25;;;;;13.84;64.62;101419.34;146606;564;46020;-72
2022/02/16 09:47:54;;;;;;;;;42.00;34.75;;;;;13.91;64.25;101424.84;146610;631;47014;-72
2022/02/16 09:50:46;;;;;;;;;43.50;35.25;;;;;13.93;64.52;101415.41;146611;615;47011;-74
2022/02/16 09:53:38;;;;;;;;;39.75;33.00;;;;;13.88;64.38;101411.66;146609;594;47012;-73
2022/02/16 09:56:32;;;;;;;;;30.50;29.75;;;;;13.78;64.99;101403.41;146609;585;46010;-72
2022/02/16 09:59:24;;;;;;;;;47.75;38.00;;;;;13.74;65.41;101404.06;146609;634;46012;-72
2022/02/16 10:02:19;;;;;;;;;44.50;36.00;;;;;13.71;65.88;101395.22;146610;578;46020;-72
2022/02/16 10:05:13;;;;;;;;;45.25;36.00;;;;;13.66;66.08;101384.53;146611;770;46013;-72
2022/02/16 10:08:06;;;;;;;;;45.75;35.25;;;;;13.58;67.15;101381.56;146613;582;46010;-72
2022/02/16 10:11:05;;;;;;;;;44.00;35.00;;;;;13.53;66.29;101382.16;146609;596;46016;-73
2022/02/16 10:14:15;;;;;;;;;45.25;35.75;;;;;13.53;66.55;101376.94;146607;635;46010;-72
2022/02/16 10:17:38;;;;;;;;;42.75;34.50;;;;;13.14;65.59;101293.34;146614;656;45016;-72
2022/02/16 10:20:30;;;;;;;;;45.25;35.75;;;;;13.52;66.11;101356.91;146613;637;46021;-73
2022/02/16 10:23:48;;;;;;;;;47.75;39.75;;;;;12.45;66.29;101160.69;146611;593;46012;-73
2022/02/16 10:26:57;;;;;;;;;55.00;41.00;;;;;13.40;66.21;101333.78;146614;625;45021;-72
2022/02/16 10:29:50;;;;;;;;;48.00;38.50;;;;;13.39;66.69;101329.34;146611;571;46012;-72
2022/02/16 10:32:42;;;;;;;;;47.75;37.50;;;;;12.30;66.65;101136.50;146611;565;47010;-72
2022/02/16 10:35:37;;;;;;;;;46.00;37.25;;;;;13.43;67.03;101317.38;146610;564;47012;-73
2022/02/16 10:38:29;;;;;;;;;50.25;41.25;;;;;13.43;66.85;101312.16;146613;626;46010;-72
2022/02/16 10:41:21;;;;;;;;;55.50;43.50;;;;;13.48;67.18;101311.56;146611;709;46017;-72
2022/02/16 10:44:42;;;;;;;;;45.00;36.00;;;;;13.50;66.30;101286.50;146607;576;46020;-72
2022/02/16 10:48:13;;;;;;;;;48.00;39.75;;;;;13.61;66.34;101292.22;146614;603;46012;-73
2022/02/16 10:51:06;;;;;;;;;39.25;34.75;;;;;13.63;66.93;101282.75;146614;603;46020;-72
2022/02/16 10:54:14;;;;;;;;;39.25;31.50;;;;;13.60;66.71;101283.50;146610;582;46012;-73
2022/02/16 10:57:07;;;;;;;;;42.50;35.50;;;;;13.53;67.47;101273.63;146612;723;46021;-73
2022/02/16 10:59:59;;;;;;;;;27.75;24.00;;;;;13.52;67.51;101270.94;146609;593;46916;-72
2022/02/16 11:02:52;;;;;;;;;44.75;36.00;;;;;13.51;67.86;101267.44;146615;570;46010;-73
2022/02/16 11:05:49;;;;;;;;;46.25;36.75;;;;;13.51;67.79;101279.56;146608;593;47012;-72
2022/02/16 11:08:43;;;;;;;;;44.50;36.50;;;;;13.53;67.35;101262.31;146614;565;46020;-72
2022/02/16 11:11:41;;;;;;;;;35.75;32.25;;;;;13.53;67.65;101271.00;146611;674;46017;-72
2022/02/16 11:14:35;;;;;;;;;43.75;36.50;;;;;13.54;68.07;101271.91;146606;720;46020;-72
2022/02/16 11:17:28;;;;;;;;;45.00;34.75;;;;;13.57;68.26;101267.72;146610;564;46015;-73
2022/02/16 11:20:29;;;;;;;;;43.00;34.00;;;;;13.62;68.10;101255.81;146611;648;46012;-72
2022/02/16 11:23:40;;;;;;;;;45.75;38.00;;;;;13.72;67.13;101249.31;146609;566;46016;-72
2022/02/16 11:26:48;;;;;;;;;45.50;37.75;;;;;13.82;67.26;101246.31;146614;579;46021;-73
2022/02/16 11:29:42;;;;;;;;;47.00;39.25;;;;;14.00;67.25;101232.34;146609;569;46016;-72
2022/02/16 11:32:43;;;;;;;;;43.50;35.50;;;;;14.07;66.82;101230.06;146613;680;46020;-72
2022/02/16 11:35:35;;;;;;;;;48.25;40.25;;;;;14.16;66.57;101229.59;146611;779;46014;-73
2022/02/16 11:38:42;;;;;;;;;56.50;45.50;;;;;14.23;66.91;101228.16;146612;662;46020;-72
2022/02/16 11:41:34;;;;;;;;;58.75;45.00;;;;;14.23;66.68;101221.22;146608;564;46917;-72
2022/02/16 11:44:26;;;;;;;;;57.50;44.00;;;;;14.22;67.21;101203.78;146604;618;47010;-73
2022/02/16 11:48:01;;;;;;;;;46.00;39.00;;;;;12.79;67.13;100971.50;146606;621;47917;-72
2022/02/16 11:50:53;;;;;;;;;49.75;40.25;;;;;14.00;68.06;101201.94;146614;667;46020;-73
2022/02/16 11:53:44;;;;;;;;;48.00;40.50;;;;;13.92;67.59;101187.66;146615;592;46012;-73
2022/02/16 11:56:39;;;;;;;;;37.50;33.50;;;;;13.88;66.95;101187.47;146615;588;45021;-73
2022/02/16 11:59:32;;;;;;;;;39.25;32.25;;;;;13.92;66.58;101176.34;146611;617;46016;-71
2022/02/16 12:02:24;;;;;;;;;35.00;30.75;;;;;13.95;65.31;101177.38;146612;591;46031;-73
2022/02/16 12:05:16;;;;;;;;;35.00;32.00;;;;;13.97;65.46;101177.47;146614;738;46012;-73
2022/02/16 12:08:22;;;;;;;;;39.75;31.25;;;;;13.96;66.09;101178.28;146613;591;46012;-72
2022/02/16 12:11:32;;;;;;;;;30.50;27.75;;;;;13.92;65.98;101166.81;146611;569;46016;-69
2022/02/16 12:14:24;;;;;;;;;36.50;31.25;;;;;13.89;65.92;101151.03;146606;573;46020;-72
2022/02/16 12:17:16;;;;;;;;;37.00;32.25;;;;;13.92;65.87;101145.97;146613;570;46016;-72
2022/02/16 12:20:09;;;;;;;;;34.50;30.25;;;;;13.92;65.95;101143.34;146613;618;46010;-72
2022/02/16 12:23:08;;;;;;;;;35.75;28.75;;;;;13.86;66.42;101143.06;146609;596;46916;-74
2022/02/16 12:26:13;;;;;;;;;41.25;34.00;;;;;13.88;66.63;101132.72;146614;607;46011;-71
2022/02/16 12:29:14;;;;;;;;;43.50;35.00;;;;;13.92;66.39;101145.06;146611;606;47012;-71
2022/02/16 12:32:08;;;;;;;;;42.75;34.50;;;;;13.89;66.62;101140.59;146612;576;46021;-72
2022/02/16 12:35:00;;;;;;;;;38.50;32.75;;;;;13.89;66.97;101124.97;146610;637;46012;-73
2022/02/16 12:37:53;;;;;;;;;45.25;37.50;;;;;13.85;66.92;101136.97;146612;574;47010;-71
2022/02/16 12:40:45;;;;;;;;;38.00;32.75;;;;;13.78;68.13;101121.91;146611;573;46016;-70
2022/02/16 12:43:37;;;;;;;;;43.00;37.25;;;;;13.68;67.74;101111.91;146609;606;46012;-72
2022/02/16 12:46:37;;;;;;;;;56.50;46.00;;;;;13.65;68.10;101108.25;146631;694;45016;-70
2022/02/16 12:49:31;;;;;;;;;55.75;43.50;;;;;13.57;68.59;101090.56;146636;581;45020;-71
2022/02/16 12:52:30;;;;;;;;;65.00;51.00;;;;;13.52;70.56;101076.44;146632;587;46014;-72
2022/02/16 12:55:22;;;;;;;;;53.25;43.50;;;;;13.50;70.41;101066.78;146633;679;45010;-71
2022/02/16 12:58:17;;;;;;;;;58.00;44.50;;;;;13.47;69.77;101072.72;146622;606;46012;-73
2022/02/16 13:01:10;;;;;;;;;55.25;44.25;;;;;13.48;69.24;101076.22;146634;625;45011;-73
2022/02/16 13:04:07;;;;;;;;;46.50;35.75;;;;;12.45;68.03;100874.59;146626;604;47917;-73
2022/02/16 13:07:00;;;;;;;;;49.75;39.75;;;;;13.53;68.26;101046.06;146635;577;45020;-73
2022/02/16 13:09:53;;;;;;;;;48.25;39.25;;;;;13.56;67.30;101033.19;146636;584;44917;-73
2022/02/16 13:12:50;;;;;;;;;58.00;45.75;;;;;13.60;68.15;101027.25;146630;574;45010;-73